WetterOnline ( https://www.wetteronline.de )

Wetter aktuell Bayerisch Eisenstein

Aktuelles Wetter: Großer Arber (1446m)

6-stündlich | Neueste Meldungen
Ortszeit Temperatur Wetter
Do, 01.12. 13:00 -0.9° C Schneegriesel
Do, 01.12. 7:00 -1.7° C wolkig
Do, 01.12. 1:00 -2.7° C bedeckt
Mi, 30.11. 19:00 -3.6° C bedeckt
Mi, 30.11. 13:00 -2.9° C wolkenlos
Mi, 30.11. 7:00 -1.6° C bedeckt
Mi, 30.11. 1:00 -2.1° C bedeckt
Di, 29.11. 19:00 -1.0° C leichter Schneefall
Ortszeit Temperatur Wetter
Do, 01.12. 15:00 -2.3° C leichter Schneefall
Do, 01.12. 14:50 -2.3° C leichter Schneefall
Do, 01.12. 14:40 -2.2° C leichter Schneefall
Do, 01.12. 14:30 -2.4° C leichter Schneefall
Do, 01.12. 14:20 -2.4° C leichter Schneefall
Do, 01.12. 14:10 -2.2° C leichter Schneefall
Do, 01.12. 14:00 -1.9° C leichter Schneefall
Do, 01.12. 13:30 -1.8° C leichter Schneefall
Do, 01.12. 13:00 -0.9° C Schneegriesel
Do, 01.12. 12:30 -0.7° C bedeckt
Do, 01.12. 12:00 -1.0° C bedeckt
Ortszeit Relative Feuchte Sichtweite
Do, 01.12. 13:00 79% 50 km
Do, 01.12. 7:00 82% 65 km
Do, 01.12. 1:00 98% 2.5 km
Mi, 30.11. 19:00 94% 45 km
Mi, 30.11. 13:00 79% 45 km
Mi, 30.11. 7:00 53% >70 km
Mi, 30.11. 1:00 96% >70 km
Di, 29.11. 19:00 96% 15 km
Ortszeit Relative Feuchte Sichtweite
Do, 01.12. 15:00 98% <100 m
Do, 01.12. 14:50 98% -
Do, 01.12. 14:40 97% -
Do, 01.12. 14:30 97% <100 m
Do, 01.12. 14:20 97% -
Do, 01.12. 14:10 97% -
Do, 01.12. 14:00 96% 100 m
Do, 01.12. 13:30 89% 4.0 km
Do, 01.12. 13:00 79% 50 km
Do, 01.12. 12:30 73% >70 km
Do, 01.12. 12:00 74% >70 km
Ortszeit Niederschlagsmenge Niederschlagsart
Do, 01.12. 13:00 0.0 l/m2 in 6 Std. Schnee
Do, 01.12. 7:00 0.0 l/m2 in 12 Std. -
Do, 01.12. 1:00 0.0 l/m2 in 6 Std. -
Mi, 30.11. 19:00 0.0 l/m2 in 12 Std. -
Mi, 30.11. 13:00 0.0 l/m2 in 6 Std. -
Mi, 30.11. 7:00 0.1 l/m2 in 12 Std. -
Mi, 30.11. 1:00 0.1 l/m2 in 6 Std. Schnee
Di, 29.11. 19:00 2 l/m2 in 12 Std. Schnee, Sprühregen
Ortszeit Niederschlagsmenge Niederschlagsart
Do, 01.12. 15:00 0.4 l/m2 in 1 Std. Schnee
Do, 01.12. 14:50 keine Meldung -
Do, 01.12. 14:40 keine Meldung -
Do, 01.12. 14:30 0.3 l/m2 in 1 Std. -
Do, 01.12. 14:20 keine Meldung -
Do, 01.12. 14:10 keine Meldung -
Do, 01.12. 14:00 0.1 l/m2 in 1 Std. Schnee
Do, 01.12. 13:30 <0.05 l/m2 in 1 Std. -
Do, 01.12. 13:00 <0.05 l/m2 in 1 Std. Schnee
Do, 01.12. 12:30 0.0 l/m2 in 1 Std. -
Do, 01.12. 12:00 0.0 l/m2 in 1 Std. -
Ortszeit Stärke Spitze Richtung
km/h Bft. km/h Grad Sektor
Do, 01.12. 13:00 18 3 47 100° O
Do, 01.12. 7:00 29 5 58 110° O
Do, 01.12. 1:00 25 4 43 120° SO
Mi, 30.11. 19:00 29 5 40 130° SO
Mi, 30.11. 13:00 15 3 26 150° SO
Mi, 30.11. 7:00 17 3 26 80° O
Mi, 30.11. 1:00 9 2 22 50° NO
Di, 29.11. 19:00 4 1 14 180° S
Ortszeit Stärke Spitze Richtung
km/h Bft. km/h Grad Sektor
Do, 01.12. 15:00 19 3 30 90° O
Do, 01.12. 14:50 19 3 - 90° O
Do, 01.12. 14:40 17 3 - 90° O
Do, 01.12. 14:30 13 3 24 90° O
Do, 01.12. 14:20 13 3 - 90° O
Do, 01.12. 14:10 13 3 - 90° O
Do, 01.12. 14:00 17 3 31 90° O
Do, 01.12. 13:30 14 3 32 100° O
Do, 01.12. 13:00 18 3 32 100° O
Do, 01.12. 12:30 19 3 33 100° O
Do, 01.12. 12:00 19 3 37 110° O
Ortszeit Untergrenze Bedeckung Gattung
total tief tief mittel hoch
Do, 01.12. 13:00 450 m 7/8 7/8 - - -
Do, 01.12. 7:00 480 m 7/8 5/8 - - -
Do, 01.12. 1:00 30 m 8/8 8/8 - - -
Mi, 30.11. 19:00 5100 m 8/8 8/8 - - -
Mi, 30.11. 13:00 - 0/8 0/8 - - -
Mi, 30.11. 7:00 2400 m 8/8 8/8 - - -
Mi, 30.11. 1:00 3000 m 8/8 8/8 - - -
Di, 29.11. 19:00 990 m 7/8 7/8 - - -
Ortszeit Bedeckungsgrad in Achtel und Wolkenuntergrenze
Do, 01.12. 15:00 8(<30m)
Do, 01.12. 14:50 8(<30m)
Do, 01.12. 14:40 8
Do, 01.12. 14:30 8(<30m)
Do, 01.12. 14:20 8(<30m)
Do, 01.12. 14:10 8
Do, 01.12. 14:00 7(<30m) 8(150m)
Do, 01.12. 13:30 6(210m) 7(360m)
Do, 01.12. 13:00 2(450m) 7(720m) 7(1500m)
Do, 01.12. 12:30 2(540m) 7(1110m) 8(1800m)
Do, 01.12. 12:00 2(510m) 8(1140m) 8(1800m)
Ortszeit Stationsdruck (hPa) Tendenz (hPa in 3 Std.)
Do, 01.12. 13:00 855 - 0,8
Do, 01.12. 7:00 855 + 0,2
Do, 01.12. 1:00 856 - 0,2
Mi, 30.11. 19:00 855 + 0,5
Mi, 30.11. 13:00 854 - 0,3
Mi, 30.11. 7:00 854 + 0,2
Mi, 30.11. 1:00 854 - 0,2
Di, 29.11. 19:00 853 + 0,7
Ortszeit Stationsdruck (hPa) Tendenz (hPa in 3 Std.)
Do, 01.12. 15:00 855 - 0,7
Do, 01.12. 14:50 855 keine Meldung
Do, 01.12. 14:40 855 keine Meldung
Do, 01.12. 14:30 855 - 0,8
Do, 01.12. 14:20 855 keine Meldung
Do, 01.12. 14:10 855 keine Meldung
Do, 01.12. 14:00 855 - 1,0
Do, 01.12. 13:30 855 - 0,9
Do, 01.12. 13:00 855 - 0,8
Do, 01.12. 12:30 856 - 0,4
Do, 01.12. 12:00 856 - 0,2
Ortszeit Schneehöhe (cm)
Do, 01.12. 13:00 35
Do, 01.12. 7:00 35
Do, 01.12. 1:00 35
Mi, 30.11. 19:00 36
Mi, 30.11. 13:00 36
Mi, 30.11. 7:00 36
Mi, 30.11. 1:00 36
Di, 29.11. 19:00 37
Ortszeit Schneehöhe (cm)
Do, 01.12. 15:00 36
Do, 01.12. 14:50 36
Do, 01.12. 14:40 36
Do, 01.12. 14:30 36
Do, 01.12. 14:20 36
Do, 01.12. 14:10 36
Do, 01.12. 14:00 35
Do, 01.12. 13:30 35
Do, 01.12. 13:00 35
Do, 01.12. 12:30 35
Do, 01.12. 12:00 35
Link zu dieser Seite / Seite empfehlen

Das Wetter in ...